Yvoir, Belgium
Current Conditions -  °F | °C
As of 6:55 AM on Tuesday 21 Oct 2014 (Local Time) from EBFS Reporting Station
Broken Clouds Broken Clouds  
Wind Chill: 50°   Ceiling: 3700
Heat Index: 50°   Visibility: 6mi
Dew Point: 48°   Wind: 13mph
Humidity: 94%   Direction: 200°SSW
Pressure: 29.85"   Gusts: NA
Location:  50.33°N, 4.88°E
Report Text: EBFS 210455Z 20011KT 9999 SCT008 BKN037 10/09 Q1011 GRN BLU TEMPO GRN
Loading
Personal Weather Stations






























Interactive Weather Map
Tropical Storm Tracking
New forecast layout! Learn more

10-Day Weather Forecast

Advertisements
Track Severe Weather on mobile